ESST/TYF METAR and TAF weather

Enter ICAO airport designator
Station Type Date Time Source
ESST METAR 2019/08/17 10:50 UTC NOAA

ESST 171050Z AUTO 14009KT 110V170 9999 -DZ BKN008/// OVC015/// 15/14 Q1005


Station Type Date Time Source
ESST Decoded METAR 2019/08/17 10:50 UTC NOAA

Station name not available
Aug 17, 2019 - 06:50 AM EDT / 2019.08.17 1050 UTC
Wind: from the SE (140 degrees) at 10 MPH (9 KT) (direction variable):0
Visibility: greater than 7 mile(s):0
Sky conditions: overcast
Weather: light drizzle
Temperature: 59 F (15 C)
Dew Point: 57 F (14 C)
Relative Humidity: 93%
Pressure (altimeter): 29.68 in. Hg (1005 hPa)
ob: ESST 171050Z AUTO 14009KT 110V170 9999 -DZ BKN008/// OVC015/// 15/14 Q1005
cycle: 11

Station Type Date Time Source
ESST TAF UTC NOAA

Error!

Example: see airport list